DLH3EL EDDM-EDDF
Flight info
| Callsign | DLH3EL |
|---|---|
| Flight time | 0h 35m |
| Altitude | 24000 |
| Route | GIVMI1N/26R GIVMI Y101 ERNAS T161 DEBHI DEBHI1B |
| Aircraft | A333/H-SDE3GHIJ2J3J5M1RVWXY/LB2D1 |
Departure
| Time | 2026-05-06 17:09 |
|---|---|
| Airport | Munich Airport (EDDM) |
Arrival
| Time | 2026-05-06 17:44 |
|---|---|
| Airport | Frankfurt Main Airport (EDDF) |
| Time | Latitude | Longitude | Altitude | Speed | Heading |
|---|---|---|---|---|---|
| 2026-05-06 16:43 | 48.35466 | 11.79731 | 1462 ft | 0 kts | 84° |
| 2026-05-06 16:53 | 48.35465 | 11.79719 | 1471 ft | 2 kts | 84° |
| 2026-05-06 16:54 | 48.35463 | 11.79695 | 1460 ft | 2 kts | 83° |
| 2026-05-06 16:54 | 48.35461 | 11.79670 | 1461 ft | 2 kts | 82° |
| 2026-05-06 16:54 | 48.35459 | 11.79646 | 1460 ft | 2 kts | 81° |
| 2026-05-06 16:54 | 48.35457 | 11.79622 | 1460 ft | 2 kts | 91° |
| 2026-05-06 16:55 | 48.35461 | 11.79599 | 1460 ft | 2 kts | 143° |
| 2026-05-06 16:55 | 48.35475 | 11.79588 | 1460 ft | 1 kts | 168° |
| 2026-05-06 16:55 | 48.35479 | 11.79587 | 1459 ft | 0 kts | 171° |
| 2026-05-06 16:59 | 48.35459 | 11.79574 | 1459 ft | 8 kts | 218° |
| 2026-05-06 17:00 | 48.35462 | 11.79477 | 1464 ft | 10 kts | 311° |
| 2026-05-06 17:00 | 48.35536 | 11.79468 | 1468 ft | 13 kts | 31° |
| 2026-05-06 17:00 | 48.35619 | 11.79556 | 1462 ft | 15 kts | 10° |
| 2026-05-06 17:00 | 48.35730 | 11.79544 | 1465 ft | 17 kts | 354° |
| 2026-05-06 17:01 | 48.35852 | 11.79523 | 1461 ft | 18 kts | 353° |
| 2026-05-06 17:01 | 48.35977 | 11.79502 | 1465 ft | 16 kts | 354° |
| 2026-05-06 17:01 | 48.36021 | 11.79495 | 1461 ft | 0 kts | 354° |
| 2026-05-06 17:03 | 48.36076 | 11.79485 | 1462 ft | 13 kts | 353° |
| 2026-05-06 17:04 | 48.36167 | 11.79470 | 1469 ft | 14 kts | 355° |
| 2026-05-06 17:04 | 48.36220 | 11.79562 | 1465 ft | 13 kts | 79° |
| 2026-05-06 17:04 | 48.36232 | 11.79706 | 1465 ft | 15 kts | 83° |
| 2026-05-06 17:04 | 48.36245 | 11.79882 | 1466 ft | 20 kts | 83° |
| 2026-05-06 17:05 | 48.36262 | 11.80097 | 1469 ft | 22 kts | 83° |
| 2026-05-06 17:05 | 48.36280 | 11.80332 | 1462 ft | 24 kts | 83° |
| 2026-05-06 17:05 | 48.36299 | 11.80585 | 1471 ft | 25 kts | 83° |
| 2026-05-06 17:05 | 48.36320 | 11.80851 | 1466 ft | 27 kts | 83° |
| 2026-05-06 17:06 | 48.36339 | 11.81104 | 1462 ft | 25 kts | 83° |
| 2026-05-06 17:06 | 48.36359 | 11.81372 | 1466 ft | 27 kts | 83° |
| 2026-05-06 17:06 | 48.36381 | 11.81650 | 1461 ft | 24 kts | 83° |
| 2026-05-06 17:06 | 48.36392 | 11.81901 | 1462 ft | 24 kts | 94° |
| 2026-05-06 17:07 | 48.36407 | 11.82125 | 1467 ft | 13 kts | 59° |
| 2026-05-06 17:07 | 48.36444 | 11.82147 | 1460 ft | 6 kts | 356° |
| 2026-05-06 17:07 | 48.36534 | 11.82130 | 1464 ft | 18 kts | 353° |
| 2026-05-06 17:07 | 48.36656 | 11.82061 | 1459 ft | 15 kts | 320° |
| 2026-05-06 17:08 | 48.36674 | 11.81934 | 1468 ft | 13 kts | 264° |
| 2026-05-06 17:08 | 48.36647 | 11.81577 | 1465 ft | 66 kts | 263° |
| 2026-05-06 17:08 | 48.36568 | 11.80537 | 1463 ft | 132 kts | 263° |
| 2026-05-06 17:08 | 48.36441 | 11.78920 | 1765 ft | 169 kts | 263° |
| 2026-05-06 17:09 | 48.36293 | 11.77090 | 2483 ft | 183 kts | 264° |
| 2026-05-06 17:09 | 48.36159 | 11.75087 | 3294 ft | 200 kts | 264° |
| 2026-05-06 17:09 | 48.36009 | 11.72896 | 3895 ft | 224 kts | 263° |
| 2026-05-06 17:09 | 48.35868 | 11.70458 | 4468 ft | 247 kts | 265° |
| 2026-05-06 17:10 | 48.35915 | 11.67786 | 5137 ft | 264 kts | 282° |
| 2026-05-06 17:10 | 48.36674 | 11.65251 | 6017 ft | 269 kts | 299° |
| 2026-05-06 17:10 | 48.37669 | 11.62852 | 6657 ft | 272 kts | 301° |
| 2026-05-06 17:10 | 48.38708 | 11.60425 | 7569 ft | 278 kts | 301° |
| 2026-05-06 17:11 | 48.39752 | 11.57950 | 8587 ft | 281 kts | 300° |
| 2026-05-06 17:11 | 48.40782 | 11.55468 | 9571 ft | 284 kts | 300° |
| 2026-05-06 17:11 | 48.41830 | 11.52916 | 10483 ft | 288 kts | 299° |
| 2026-05-06 17:11 | 48.42887 | 11.50327 | 11370 ft | 292 kts | 299° |
| 2026-05-06 17:12 | 48.43957 | 11.47695 | 12254 ft | 296 kts | 298° |
| 2026-05-06 17:12 | 48.45145 | 11.45133 | 13135 ft | 302 kts | 309° |
| 2026-05-06 17:12 | 48.46832 | 11.43165 | 13899 ft | 316 kts | 331° |
| 2026-05-06 17:12 | 48.48971 | 11.42128 | 14253 ft | 339 kts | 346° |
| 2026-05-06 17:13 | 48.51361 | 11.41466 | 14565 ft | 359 kts | 348° |
| 2026-05-06 17:13 | 48.53881 | 11.40835 | 14992 ft | 373 kts | 349° |
| 2026-05-06 17:13 | 48.56471 | 11.40172 | 15653 ft | 379 kts | 348° |
| 2026-05-06 17:13 | 48.59088 | 11.39483 | 16384 ft | 384 kts | 348° |
| 2026-05-06 17:14 | 48.61741 | 11.38770 | 17120 ft | 389 kts | 348° |
| 2026-05-06 17:14 | 48.64420 | 11.38041 | 17843 ft | 393 kts | 348° |
| 2026-05-06 17:14 | 48.67093 | 11.37309 | 18415 ft | 397 kts | 348° |
| 2026-05-06 17:14 | 48.69816 | 11.36560 | 18699 ft | 399 kts | 348° |
| 2026-05-06 17:15 | 48.72552 | 11.35807 | 18750 ft | 401 kts | 348° |
| 2026-05-06 17:15 | 48.75301 | 11.35049 | 18751 ft | 402 kts | 348° |
| 2026-05-06 17:15 | 48.78070 | 11.34311 | 18884 ft | 404 kts | 348° |
| 2026-05-06 17:15 | 48.80848 | 11.33548 | 19454 ft | 407 kts | 345° |
| 2026-05-06 17:16 | 48.83552 | 11.32297 | 20146 ft | 407 kts | 336° |
| 2026-05-06 17:16 | 48.86075 | 11.30336 | 20798 ft | 407 kts | 323° |
| 2026-05-06 17:16 | 48.88160 | 11.27446 | 21433 ft | 405 kts | 306° |
| 2026-05-06 17:16 | 48.89798 | 11.24014 | 22076 ft | 407 kts | 300° |
| 2026-05-06 17:17 | 48.91260 | 11.20324 | 22704 ft | 409 kts | 296° |
| 2026-05-06 17:17 | 48.92619 | 11.16492 | 23298 ft | 412 kts | 294° |
| 2026-05-06 17:17 | 48.93939 | 11.12590 | 23660 ft | 414 kts | 294° |
| 2026-05-06 17:17 | 48.95272 | 11.08676 | 23788 ft | 422 kts | 297° |
| 2026-05-06 17:18 | 48.96988 | 11.04983 | 23790 ft | 432 kts | 308° |
| 2026-05-06 17:18 | 48.99039 | 11.01615 | 23782 ft | 435 kts | 311° |
| 2026-05-06 17:18 | 49.01205 | 10.98382 | 23778 ft | 436 kts | 313° |
| 2026-05-06 17:18 | 49.03401 | 10.95277 | 23807 ft | 436 kts | 314° |
| 2026-05-06 17:19 | 49.05656 | 10.92162 | 23809 ft | 436 kts | 315° |
| 2026-05-06 17:19 | 49.07908 | 10.89063 | 23807 ft | 435 kts | 315° |
| 2026-05-06 17:19 | 49.10130 | 10.85985 | 23807 ft | 435 kts | 314° |
| 2026-05-06 17:19 | 49.12376 | 10.82850 | 23822 ft | 435 kts | 314° |
| 2026-05-06 17:20 | 49.14607 | 10.79713 | 23826 ft | 435 kts | 314° |
| 2026-05-06 17:20 | 49.16834 | 10.76564 | 23823 ft | 435 kts | 314° |
| 2026-05-06 17:20 | 49.19027 | 10.73448 | 23822 ft | 435 kts | 313° |
| 2026-05-06 17:20 | 49.21177 | 10.70194 | 23818 ft | 434 kts | 311° |
| 2026-05-06 17:21 | 49.23285 | 10.66880 | 23812 ft | 434 kts | 311° |
| 2026-05-06 17:21 | 49.25395 | 10.63543 | 23805 ft | 435 kts | 311° |
| 2026-05-06 17:21 | 49.27509 | 10.60200 | 23806 ft | 435 kts | 310° |
| 2026-05-06 17:21 | 49.29588 | 10.56913 | 23803 ft | 435 kts | 310° |
| 2026-05-06 17:22 | 49.31701 | 10.53568 | 23805 ft | 435 kts | 310° |
| 2026-05-06 17:22 | 49.33817 | 10.50218 | 23805 ft | 435 kts | 310° |
| 2026-05-06 17:22 | 49.35849 | 10.46862 | 23802 ft | 433 kts | 306° |
| 2026-05-06 17:22 | 49.37671 | 10.43186 | 23779 ft | 431 kts | 302° |
| 2026-05-06 17:23 | 49.39404 | 10.39421 | 23778 ft | 431 kts | 301° |
| 2026-05-06 17:23 | 49.41119 | 10.35649 | 23778 ft | 431 kts | 301° |
| 2026-05-06 17:23 | 49.42834 | 10.31872 | 23775 ft | 431 kts | 301° |
| 2026-05-06 17:23 | 49.44549 | 10.28095 | 23807 ft | 431 kts | 302° |
| 2026-05-06 17:24 | 49.46254 | 10.24342 | 23725 ft | 425 kts | 302° |
| 2026-05-06 17:24 | 49.47938 | 10.20635 | 23496 ft | 419 kts | 301° |
| 2026-05-06 17:24 | 49.49573 | 10.17029 | 23163 ft | 413 kts | 301° |
| 2026-05-06 17:24 | 49.51214 | 10.13406 | 22613 ft | 408 kts | 301° |
| 2026-05-06 17:25 | 49.52828 | 10.09835 | 22101 ft | 405 kts | 301° |
| 2026-05-06 17:25 | 49.54431 | 10.06286 | 21559 ft | 401 kts | 301° |
| 2026-05-06 17:25 | 49.55999 | 10.02807 | 21050 ft | 398 kts | 301° |
| 2026-05-06 17:25 | 49.57571 | 9.99316 | 20530 ft | 395 kts | 301° |
| 2026-05-06 17:26 | 49.58608 | 9.97010 | 20169 ft | 393 kts | 301° |
| 2026-05-06 17:26 | 49.60664 | 9.92434 | 19522 ft | 389 kts | 302° |
| 2026-05-06 17:26 | 49.62203 | 9.89000 | 19000 ft | 387 kts | 302° |
| 2026-05-06 17:26 | 49.63235 | 9.86696 | 18648 ft | 386 kts | 302° |
| 2026-05-06 17:27 | 49.64741 | 9.83330 | 18145 ft | 384 kts | 302° |
| 2026-05-06 17:27 | 49.66255 | 9.79944 | 17577 ft | 382 kts | 302° |
| 2026-05-06 17:27 | 49.67755 | 9.76584 | 17040 ft | 377 kts | 302° |
| 2026-05-06 17:27 | 49.69243 | 9.73248 | 16554 ft | 374 kts | 302° |
| 2026-05-06 17:28 | 49.70711 | 9.69954 | 16054 ft | 370 kts | 302° |
| 2026-05-06 17:28 | 49.72146 | 9.66726 | 15557 ft | 367 kts | 302° |
| 2026-05-06 17:28 | 49.73586 | 9.63484 | 15063 ft | 364 kts | 302° |
| 2026-05-06 17:28 | 49.75014 | 9.60264 | 14563 ft | 361 kts | 302° |
| 2026-05-06 17:29 | 49.76428 | 9.57074 | 14078 ft | 358 kts | 302° |
| 2026-05-06 17:29 | 49.77829 | 9.53905 | 13571 ft | 355 kts | 302° |
| 2026-05-06 17:29 | 49.79224 | 9.50749 | 13057 ft | 352 kts | 302° |
| 2026-05-06 17:29 | 49.80597 | 9.47640 | 12496 ft | 349 kts | 302° |
| 2026-05-06 17:30 | 49.81947 | 9.44578 | 11897 ft | 347 kts | 302° |
| 2026-05-06 17:30 | 49.83309 | 9.41487 | 11319 ft | 345 kts | 302° |
| 2026-05-06 17:30 | 49.84656 | 9.38423 | 10742 ft | 342 kts | 302° |
| 2026-05-06 17:30 | 49.85931 | 9.35322 | 10180 ft | 339 kts | 295° |
| 2026-05-06 17:31 | 49.86799 | 9.31958 | 9650 ft | 334 kts | 287° |
| 2026-05-06 17:31 | 49.87467 | 9.28572 | 9388 ft | 321 kts | 284° |
| 2026-05-06 17:31 | 49.88074 | 9.25353 | 9208 ft | 308 kts | 284° |
| 2026-05-06 17:31 | 49.88662 | 9.22227 | 9036 ft | 296 kts | 284° |
| 2026-05-06 17:32 | 49.89236 | 9.19220 | 8816 ft | 286 kts | 286° |
| 2026-05-06 17:32 | 49.90191 | 9.16552 | 8482 ft | 285 kts | 310° |
| 2026-05-06 17:32 | 49.91800 | 9.14780 | 8113 ft | 286 kts | 336° |
| 2026-05-06 17:32 | 49.93762 | 9.14224 | 7716 ft | 288 kts | 358° |
| 2026-05-06 17:33 | 49.95759 | 9.14375 | 7366 ft | 286 kts | 3° |
| 2026-05-06 17:33 | 49.97721 | 9.14640 | 6984 ft | 285 kts | 4° |
| 2026-05-06 17:33 | 49.99696 | 9.14921 | 6614 ft | 284 kts | 4° |
| 2026-05-06 17:33 | 50.01662 | 9.15206 | 6256 ft | 282 kts | 4° |
| 2026-05-06 17:34 | 50.03611 | 9.15490 | 5882 ft | 281 kts | 4° |
| 2026-05-06 17:34 | 50.05554 | 9.15771 | 5498 ft | 279 kts | 4° |
| 2026-05-06 17:34 | 50.07483 | 9.16048 | 5142 ft | 277 kts | 4° |
| 2026-05-06 17:34 | 50.09399 | 9.16323 | 4787 ft | 276 kts | 3° |
| 2026-05-06 17:35 | 50.11310 | 9.16601 | 4432 ft | 273 kts | 3° |
| 2026-05-06 17:35 | 50.13199 | 9.16883 | 4087 ft | 272 kts | 4° |
| 2026-05-06 17:35 | 50.15080 | 9.17073 | 3991 ft | 269 kts | 353° |
| 2026-05-06 17:36 | 50.17737 | 9.13880 | 3979 ft | 236 kts | 283° |
| 2026-05-06 17:36 | 50.17626 | 9.11481 | 3973 ft | 222 kts | 244° |
| 2026-05-06 17:36 | 50.16736 | 9.09527 | 4018 ft | 222 kts | 233° |
| 2026-05-06 17:36 | 50.15877 | 9.07591 | 4016 ft | 210 kts | 239° |
| 2026-05-06 17:37 | 50.15187 | 9.05530 | 4032 ft | 220 kts | 246° |
| 2026-05-06 17:37 | 50.14625 | 9.03327 | 4034 ft | 223 kts | 250° |
| 2026-05-06 17:37 | 50.14090 | 9.01047 | 4043 ft | 223 kts | 250° |
| 2026-05-06 17:37 | 50.13555 | 8.98777 | 4036 ft | 223 kts | 250° |
| 2026-05-06 17:38 | 50.13014 | 8.96506 | 4035 ft | 224 kts | 249° |
| 2026-05-06 17:38 | 50.12470 | 8.94227 | 4035 ft | 223 kts | 250° |
| 2026-05-06 17:38 | 50.11929 | 8.91951 | 4033 ft | 224 kts | 249° |
| 2026-05-06 17:38 | 50.11386 | 8.89666 | 4033 ft | 224 kts | 249° |
| 2026-05-06 17:39 | 50.10866 | 8.87477 | 4031 ft | 210 kts | 249° |
| 2026-05-06 17:39 | 50.10368 | 8.85379 | 3990 ft | 203 kts | 249° |
| 2026-05-06 17:39 | 50.09882 | 8.83337 | 3771 ft | 199 kts | 250° |
| 2026-05-06 17:39 | 50.09405 | 8.81333 | 3468 ft | 199 kts | 250° |
| 2026-05-06 17:40 | 50.08923 | 8.79305 | 3172 ft | 200 kts | 250° |
| 2026-05-06 17:40 | 50.08440 | 8.77274 | 2882 ft | 200 kts | 250° |
| 2026-05-06 17:40 | 50.07970 | 8.75303 | 2609 ft | 187 kts | 251° |
| 2026-05-06 17:40 | 50.07524 | 8.73426 | 2371 ft | 182 kts | 252° |
| 2026-05-06 17:41 | 50.07090 | 8.71602 | 2134 ft | 182 kts | 252° |
| 2026-05-06 17:41 | 50.06660 | 8.69798 | 1885 ft | 171 kts | 252° |
| 2026-05-06 17:41 | 50.06265 | 8.68141 | 1685 ft | 156 kts | 252° |
| 2026-05-06 17:41 | 50.05901 | 8.66609 | 1457 ft | 145 kts | 252° |
| 2026-05-06 17:42 | 50.05559 | 8.65171 | 1277 ft | 140 kts | 252° |
| 2026-05-06 17:42 | 50.05221 | 8.63757 | 1086 ft | 138 kts | 253° |
| 2026-05-06 17:42 | 50.04890 | 8.62363 | 897 ft | 137 kts | 252° |
| 2026-05-06 17:42 | 50.04552 | 8.60998 | 724 ft | 135 kts | 252° |
| 2026-05-06 17:43 | 50.04232 | 8.59641 | 537 ft | 135 kts | 252° |
| 2026-05-06 17:43 | 50.03910 | 8.58271 | 379 ft | 134 kts | 252° |
| 2026-05-06 17:43 | 50.03607 | 8.56969 | 364 ft | 114 kts | 249° |
| 2026-05-06 17:43 | 50.03397 | 8.56110 | 363 ft | 56 kts | 250° |
| 2026-05-06 17:44 | 50.03334 | 8.55824 | 357 ft | 4 kts | 256° |
| 2026-05-06 17:44 | 50.03312 | 8.55605 | 358 ft | 29 kts | 272° |
| 2026-05-06 17:44 | 50.03333 | 8.55320 | 366 ft | 24 kts | 278° |
| 2026-05-06 17:44 | 50.03343 | 8.55238 | 361 ft | 0 kts | 283° |
| 2026-05-06 17:45 | 50.03351 | 8.55209 | 368 ft | 7 kts | 299° |
| 2026-05-06 17:45 | 50.03395 | 8.55176 | 367 ft | 9 kts | 2° |
| 2026-05-06 17:45 | 50.03440 | 8.55265 | 367 ft | 13 kts | 73° |
| 2026-05-06 17:45 | 50.03472 | 8.55393 | 365 ft | 15 kts | 69° |
| 2026-05-06 17:46 | 50.03520 | 8.55592 | 364 ft | 21 kts | 70° |
| 2026-05-06 17:46 | 50.03573 | 8.55816 | 366 ft | 23 kts | 69° |
| 2026-05-06 17:46 | 50.03631 | 8.56056 | 367 ft | 25 kts | 70° |
| 2026-05-06 17:46 | 50.03692 | 8.56311 | 368 ft | 26 kts | 69° |
| 2026-05-06 17:47 | 50.03754 | 8.56571 | 367 ft | 26 kts | 69° |
| 2026-05-06 17:47 | 50.03819 | 8.56842 | 368 ft | 27 kts | 70° |
| 2026-05-06 17:47 | 50.03887 | 8.57127 | 370 ft | 29 kts | 69° |
| 2026-05-06 17:47 | 50.03958 | 8.57423 | 371 ft | 30 kts | 69° |
| 2026-05-06 17:48 | 50.04024 | 8.57698 | 368 ft | 23 kts | 70° |
| 2026-05-06 17:48 | 50.04080 | 8.57937 | 366 ft | 24 kts | 70° |
| 2026-05-06 17:48 | 50.04140 | 8.58128 | 369 ft | 14 kts | 46° |
| 2026-05-06 17:48 | 50.04192 | 8.58174 | 371 ft | 7 kts | 24° |
| 2026-05-06 17:49 | 50.04198 | 8.58178 | 369 ft | 0 kts | 25° |
| 2026-05-06 17:49 | 50.04219 | 8.58192 | 369 ft | 10 kts | 24° |
| 2026-05-06 17:49 | 50.04261 | 8.58205 | 368 ft | 4 kts | 2° |
| 2026-05-06 17:49 | 50.04284 | 8.58200 | 368 ft | 0 kts | 349° |
| 2026-05-06 17:51 | 50.04328 | 8.58177 | 367 ft | 14 kts | 332° |
| 2026-05-06 17:52 | 50.04356 | 8.58039 | 367 ft | 15 kts | 251° |
| 2026-05-06 17:52 | 50.04317 | 8.57875 | 367 ft | 17 kts | 250° |
| 2026-05-06 17:52 | 50.04322 | 8.57706 | 371 ft | 16 kts | 319° |
| 2026-05-06 17:52 | 50.04375 | 8.57663 | 368 ft | 0 kts | 338° |
| 2026-05-06 17:53 | 50.04378 | 8.57661 | 368 ft | 0 kts | 338° |
| 2026-05-06 17:54 | 50.04382 | 8.57658 | 363 ft | 5 kts | 338° |
| 2026-05-06 17:55 | 50.04450 | 8.57600 | 369 ft | 13 kts | 330° |
| 2026-05-06 17:55 | 50.04545 | 8.57523 | 370 ft | 17 kts | 334° |
| 2026-05-06 17:55 | 50.04609 | 8.57529 | 370 ft | 9 kts | 43° |
| 2026-05-06 17:55 | 50.04649 | 8.57657 | 370 ft | 15 kts | 70° |
| 2026-05-06 17:56 | 50.04687 | 8.57815 | 370 ft | 17 kts | 69° |
| 2026-05-06 17:56 | 50.04768 | 8.57919 | 365 ft | 16 kts | 356° |
| 2026-05-06 17:56 | 50.04851 | 8.57819 | 369 ft | 15 kts | 296° |
| 2026-05-06 17:56 | 50.04891 | 8.57773 | 370 ft | 6 kts | 348° |
| 2026-05-06 17:57 | 50.04930 | 8.57781 | 367 ft | 4 kts | 16° |
| 2026-05-06 17:57 | 50.04945 | 8.57789 | 367 ft | 0 kts | 20° |